Time,TemperatureF,DewpointF,PressureIn,WindDirection,WindDirectionDegrees,WindSpeedMPH,WindSpeedGustMPH,Humidity,HourlyPrecipIn,Conditions,Clouds,dailyrainin,SoftwareType,DateUTC
2014-10-01 00:24:00,76.0,75.0,29.89,SE,141,2.0,3.0,96,-99.99,,,-99.99,,2014-10-01 04:24:00,
2014-10-01 00:30:00,77.0,75.0,29.88,South,173,4.0,4.0,93,-99.99,,,-99.99,,2014-10-01 04:30:00,
2014-10-01 00:34:00,76.0,75.0,29.89,SE,141,2.0,3.0,96,-99.99,,,-99.99,,2014-10-01 04:34:00,
2014-10-01 00:54:00,76.0,75.0,29.88,SSE,167,4.0,5.0,95,-99.99,,,-99.99,,2014-10-01 04:54:00,
2014-10-01 01:13:00,77.0,75.0,29.88,South,173,4.0,4.0,93,-99.99,,,-99.99,,2014-10-01 05:13:00,
2014-10-01 01:23:00,77.0,75.0,29.88,South,173,4.0,4.0,93,-99.99,,,-99.99,,2014-10-01 05:23:00,
2014-10-01 01:53:00,77.0,75.0,29.89,ESE,116,1.0,3.0,96,-99.99,,,-99.99,,2014-10-01 05:53:00,
2014-10-01 02:12:00,77.0,76.0,29.88,SSW,194,3.0,4.0,97,-99.99,,,-99.99,,2014-10-01 06:12:00,
2014-10-01 02:22:00,77.0,76.0,29.88,SSW,194,3.0,4.0,97,-99.99,,,-99.99,,2014-10-01 06:22:00,
2014-10-01 02:52:00,77.0,76.0,29.89,SSW,202,3.0,3.0,96,-99.99,,,-99.99,,2014-10-01 06:52:00,
2014-10-01 03:12:00,77.0,76.0,29.88,South,174,4.0,5.0,96,-99.99,,,-99.99,,2014-10-01 07:12:00,
2014-10-01 03:23:00,77.0,76.0,29.88,South,174,4.0,5.0,96,-99.99,,,-99.99,,2014-10-01 07:23:00,
2014-10-01 03:53:00,77.0,76.0,29.88,South,185,3.0,4.0,96,-99.99,,,-99.99,,2014-10-01 07:53:00,
2014-10-01 04:12:00,77.0,76.0,29.88,South,169,3.0,4.0,96,-99.99,,,-99.99,,2014-10-01 08:12:00,
2014-10-01 04:22:00,77.0,76.0,29.88,South,169,3.0,4.0,96,-99.99,,,-99.99,,2014-10-01 08:22:00,
2014-10-01 04:32:00,77.0,76.0,29.88,South,169,3.0,4.0,96,-99.99,,,-99.99,,2014-10-01 08:32:00,
2014-10-01 04:53:00,77.0,76.0,29.87,South,180,3.0,3.0,97,-99.99,,,-99.99,,2014-10-01 08:53:00,
2014-10-01 05:02:00,77.0,76.0,29.87,South,180,3.0,3.0,97,-99.99,,,-99.99,,2014-10-01 09:02:00,
2014-10-01 05:22:00,77.0,76.0,29.87,SSW,211,3.0,4.0,97,-99.99,,,-99.99,,2014-10-01 09:22:00,
2014-10-01 05:34:00,77.0,76.0,29.87,SSW,211,3.0,4.0,97,-99.99,,,-99.99,,2014-10-01 09:34:00,
2014-10-01 06:23:00,78.0,77.0,29.89,South,190,4.0,5.0,98,-99.99,,,-99.99,,2014-10-01 10:23:00,
2014-10-01 06:43:00,77.0,77.0,29.90,South,177,2.0,3.0,97,-99.99,,,-99.99,,2014-10-01 10:43:00,
2014-10-01 06:53:00,77.0,77.0,29.90,South,177,2.0,3.0,97,-99.99,,,-99.99,,2014-10-01 10:53:00,
2014-10-01 07:13:00,77.0,77.0,29.90,South,177,0.0,2.0,98,-99.99,,,-99.99,,2014-10-01 11:13:00,
2014-10-01 07:23:00,77.0,77.0,29.90,South,177,0.0,2.0,98,-99.99,,,-99.99,,2014-10-01 11:23:00,
2014-10-01 07:53:00,77.0,76.0,29.91,SE,127,1.0,2.0,98,-99.99,,,-99.99,,2014-10-01 11:53:00,
2014-10-01 08:22:00,77.0,77.0,29.92,SSE,167,1.0,2.0,98,-99.99,,,-99.99,,2014-10-01 12:22:00,
2014-10-01 08:32:00,77.0,77.0,29.92,SSE,167,1.0,2.0,98,-99.99,,,-99.99,,2014-10-01 12:32:00,
2014-10-01 09:22:00,81.0,78.0,29.95,SSW,201,3.0,7.0,92,-99.99,,,-99.99,,2014-10-01 13:22:00,
2014-10-01 09:32:00,81.0,78.0,29.95,SSW,201,3.0,7.0,92,-99.99,,,-99.99,,2014-10-01 13:32:00,
2014-10-01 09:53:00,81.0,78.0,29.95,SW,215,4.0,6.0,90,-99.99,,,-99.99,,2014-10-01 13:53:00,
2014-10-01 10:12:00,82.0,78.0,29.96,SW,228,5.0,8.0,88,-99.99,,,-99.99,,2014-10-01 14:12:00,
2014-10-01 10:52:00,83.0,77.0,29.97,WSW,241,6.0,9.0,81,-99.99,,,-99.99,,2014-10-01 14:52:00,
2014-10-01 11:12:00,84.0,77.0,29.97,WSW,238,7.0,11.0,78,-99.99,,,-99.99,,2014-10-01 15:12:00,
2014-10-01 11:23:00,84.0,77.0,29.97,WSW,238,7.0,11.0,78,-99.99,,,-99.99,,2014-10-01 15:23:00,
2014-10-01 11:54:00,85.0,77.0,29.97,WSW,245,7.0,10.0,74,-99.99,,,-99.99,,2014-10-01 15:54:00,
2014-10-01 12:13:00,86.0,76.0,29.96,West,259,6.0,10.0,73,-99.99,,,-99.99,,2014-10-01 16:13:00,
2014-10-01 12:24:00,86.0,76.0,29.96,West,259,6.0,10.0,73,-99.99,,,-99.99,,2014-10-01 16:24:00,
2014-10-01 12:54:00,85.0,76.0,29.96,SW,231,5.0,9.0,72,-99.99,,,-99.99,,2014-10-01 16:54:00,
2014-10-01 13:13:00,87.0,76.0,29.96,WSW,240,6.0,11.0,69,-99.99,,,-99.99,,2014-10-01 17:13:00,
2014-10-01 13:23:00,87.0,76.0,29.96,WSW,240,6.0,11.0,69,-99.99,,,-99.99,,2014-10-01 17:23:00,
2014-10-01 13:54:00,85.0,77.0,29.94,WSW,249,11.0,23.0,75,-99.99,,,-99.99,,2014-10-01 17:54:00,
2014-10-01 14:13:00,80.0,75.0,29.95,West,268,13.0,19.0,82,-99.99,,,-99.99,,2014-10-01 18:13:00,
2014-10-01 14:22:00,80.0,75.0,29.95,West,268,13.0,19.0,82,-99.99,,,-99.99,,2014-10-01 18:22:00,
2014-10-01 14:53:00,82.0,74.0,29.93,West,272,4.0,7.0,76,-99.99,,,-99.99,,2014-10-01 18:53:00,
2014-10-01 15:12:00,84.0,74.0,29.93,WSW,253,8.0,13.0,71,-99.99,,,-99.99,,2014-10-01 19:12:00,
2014-10-01 15:22:00,84.0,74.0,29.93,WSW,253,8.0,13.0,71,-99.99,,,-99.99,,2014-10-01 19:22:00,
2014-10-01 15:30:00,88.0,75.0,29.92,WSW,244,7.0,12.0,64,-99.99,,,-99.99,,2014-10-01 19:30:00,
2014-10-01 15:53:00,87.0,75.0,29.92,SW,232,6.0,10.0,66,-99.99,,,-99.99,,2014-10-01 19:53:00,
2014-10-01 16:13:00,88.0,75.0,29.92,WSW,244,7.0,12.0,64,-99.99,,,-99.99,,2014-10-01 20:13:00,
2014-10-01 16:23:00,88.0,75.0,29.92,WSW,244,7.0,12.0,64,-99.99,,,-99.99,,2014-10-01 20:23:00,
2014-10-01 16:53:00,88.0,76.0,29.91,West,267,7.0,12.0,66,-99.99,,,-99.99,,2014-10-01 20:53:00,
2014-10-01 17:12:00,88.0,75.0,29.90,West,267,7.0,10.0,65,-99.99,,,-99.99,,2014-10-01 21:12:00,
2014-10-01 17:22:00,88.0,75.0,29.90,West,267,7.0,10.0,65,-99.99,,,-99.99,,2014-10-01 21:22:00,
2014-10-01 17:54:00,89.0,76.0,29.89,WSW,252,8.0,12.0,65,-99.99,,,-99.99,,2014-10-01 21:54:00,
2014-10-01 18:13:00,88.0,75.0,29.89,WSW,253,8.0,12.0,65,-99.99,,,-99.99,,2014-10-01 22:13:00,
2014-10-01 18:23:00,88.0,75.0,29.89,WSW,253,8.0,12.0,65,-99.99,,,-99.99,,2014-10-01 22:23:00,
2014-10-01 19:22:00,79.0,74.0,29.91,WNW,300,3.0,5.0,86,-99.99,,,-99.99,,2014-10-01 23:22:00,
2014-10-01 19:33:00,79.0,74.0,29.91,WNW,300,3.0,5.0,86,-99.99,,,-99.99,,2014-10-01 23:33:00,
2014-10-01 19:53:00,80.0,76.0,29.91,SSW,197,2.0,5.0,88,-99.99,,,-99.99,,2014-10-01 23:53:00,
2014-10-01 20:12:00,80.0,76.0,29.92,SW,234,1.0,3.0,88,-99.99,,,-99.99,,2014-10-02 00:12:00,
2014-10-01 20:22:00,80.0,76.0,29.92,SW,234,1.0,3.0,88,-99.99,,,-99.99,,2014-10-02 00:22:00,
2014-10-01 20:32:00,80.0,76.0,29.92,SW,234,1.0,3.0,88,-99.99,,,-99.99,,2014-10-02 00:32:00,
2014-10-01 20:52:00,81.0,77.0,29.94,SW,229,3.0,4.0,88,-99.99,,,-99.99,,2014-10-02 00:52:00,
2014-10-01 21:02:00,81.0,77.0,29.94,SW,229,3.0,4.0,88,-99.99,,,-99.99,,2014-10-02 01:02:00,